INFORMAÇÕES METEOROLÓGICAS
METAR FOR SKPV
ADDS - METARS form results

(2331 UTC 18 January 2020)
Data provider http://aviationweather.gov/metar/data/
 
METAR text: SKPV 182300Z 07010KT 9999 FEW017 27/23 A2990
Conditions at: SKPV (PROVIDENCIA ISLA, CO) observed 2300 UTC 18 January 2020
Temperature: 27.0°C (81°F)
Dewpoint: 23.0°C (73°F) [RH = 79%]
Pressure (altimeter): 29.90 inches Hg (1012.6 mb)
Winds: from the ENE (70 degrees) at 12 MPH (10 knots; 5.1 m/s)
Visibility: 6 or more miles (10+ km)
Ceiling: at least 12,000 feet AGL
Clouds: few clouds at 1700 feet AGL
Weather: no significant weather observed at this time

 MAPA DO AEROPORTO

 INFORMAÇÕES DA PISTA
Pista 17 Tamanho da pista 3832 ft Largura da pista 50 ft
Elevação da pista 10 ft Ranhura da pista 0 ft Proa da pista 169
Pista 35 Tamanho da pista 3832 ft Largura da pista 50 ft
Elevação da pista 10 ft Ranhura da pista 0 ft Proa da pista 349

 FREQUÊNCIAS DO AEROPORTO
Tipo APP Nome SAN ANDRES Frequência 119.3 MHZ
Tipo RDO Nome PROVIDENCI Frequência 672.8 MHZ
Tipo TWR Nome TWR Frequência 121.9 MHZ

 AUXÍLIOS DE NAVEGAÇÃO PRÓXIMOS AO AEROPORTO



Powered by Mercosul Lnhas Aereas